createdAt,value
2022-09-12T00:01:19.551Z,17.83
2022-09-12T00:03:47.148Z,17.17
2022-09-12T00:06:22.610Z,16.63
2022-09-12T00:09:10.383Z,16.07
2022-09-12T00:11:42.772Z,15.37
2022-09-12T00:14:13.340Z,14.67
2022-09-12T00:16:41.265Z,15.93
2022-09-12T00:19:09.054Z,16.73
2022-09-12T00:21:38.460Z,15.97
2022-09-12T00:24:06.176Z,17.13
2022-09-12T00:26:33.113Z,16.80
2022-09-12T00:29:00.024Z,18.10
2022-09-12T00:31:27.383Z,16.67
2022-09-12T00:33:58.024Z,16.80
2022-09-12T00:36:26.028Z,16.87
2022-09-12T00:38:53.479Z,16.77
2022-09-12T00:41:29.965Z,17.83
2022-09-12T00:43:59.892Z,19.03
2022-09-12T00:46:26.731Z,17.30
2022-09-12T00:49:01.983Z,17.30
2022-09-12T00:51:31.076Z,18.10
2022-09-12T00:54:00.023Z,17.10
2022-09-12T00:56:27.963Z,16.07
2022-09-12T00:59:05.166Z,15.67
2022-09-12T01:01:32.905Z,14.97
2022-09-12T01:04:01.038Z,15.43
2022-09-12T01:06:35.932Z,13.70
2022-09-12T01:09:04.910Z,14.03
2022-09-12T01:11:37.110Z,12.67
2022-09-12T01:14:06.669Z,12.47
2022-09-12T01:16:37.018Z,11.30
2022-09-12T01:19:25.253Z,9.67
2022-09-12T01:22:31.371Z,12.30
2022-09-12T01:25:09.889Z,11.40
2022-09-12T01:28:12.065Z,10.93
2022-09-12T01:31:01.918Z,11.97
2022-09-12T01:33:34.432Z,10.77
2022-09-12T01:36:34.655Z,10.53
2022-09-12T01:39:03.529Z,10.13
2022-09-12T01:41:52.028Z,11.17
2022-09-12T01:44:31.955Z,8.97
2022-09-12T01:47:21.998Z,10.73
2022-09-12T01:50:09.676Z,10.20
2022-09-12T01:52:52.989Z,10.43
2022-09-12T01:55:31.354Z,10.40
2022-09-12T01:58:14.933Z,9.50
2022-09-12T02:01:02.636Z,10.30
2022-09-12T02:03:45.073Z,9.57
2022-09-12T02:06:26.958Z,8.83
2022-09-12T02:08:58.697Z,9.37
2022-09-12T02:11:25.754Z,9.73
2022-09-12T02:14:24.346Z,9.27
2022-09-12T02:17:16.625Z,9.77
2022-09-12T02:19:56.795Z,9.57
2022-09-12T02:22:26.573Z,8.93
2022-09-12T02:24:59.396Z,8.70
2022-09-12T02:27:44.733Z,8.90
2022-09-12T02:30:14.558Z,9.47
2022-09-12T02:32:54.044Z,8.80
2022-09-12T02:35:54.041Z,8.87
2022-09-12T02:38:46.358Z,8.63
2022-09-12T02:41:17.604Z,8.30
2022-09-12T02:43:44.642Z,8.17
2022-09-12T02:46:20.861Z,8.43
2022-09-12T02:48:47.752Z,8.77
2022-09-12T02:51:15.137Z,8.60
2022-09-12T02:53:42.381Z,9.03
2022-09-12T02:56:17.023Z,9.23
2022-09-12T02:58:44.381Z,7.50
2022-09-12T03:01:49.525Z,8.57
2022-09-12T03:04:43.744Z,9.67
2022-09-12T03:07:44.095Z,9.67
2022-09-12T03:10:23.426Z,9.10
2022-09-12T03:12:57.104Z,9.70
2022-09-12T03:15:45.346Z,8.90
2022-09-12T03:18:44.106Z,9.03
2022-09-12T03:21:20.214Z,8.97
2022-09-12T03:24:08.085Z,8.60
2022-09-12T03:27:01.997Z,8.07
2022-09-12T03:29:30.947Z,8.67
2022-09-12T03:31:58.927Z,8.83
2022-09-12T03:34:27.540Z,8.67
2022-09-12T03:36:55.540Z,8.90
2022-09-12T03:39:24.487Z,8.80
2022-09-12T03:41:51.841Z,9.97
2022-09-12T03:44:19.775Z,10.00
2022-09-12T03:46:47.222Z,11.87
2022-09-12T03:49:14.505Z,9.70
2022-09-12T03:51:42.995Z,9.73
2022-09-12T03:54:11.030Z,9.23
2022-09-12T03:56:38.160Z,8.57
2022-09-12T03:59:06.732Z,10.70
2022-09-12T04:01:33.927Z,10.97
2022-09-12T04:04:01.029Z,10.27
2022-09-12T04:06:27.897Z,11.47
2022-09-12T04:08:56.284Z,10.23
2022-09-12T04:11:23.687Z,20.10
2022-09-12T04:13:51.006Z,22.70
2022-09-12T04:16:18.848Z,28.03
2022-09-12T04:18:46.900Z,12.37
2022-09-12T04:21:16.917Z,17.23
2022-09-12T04:23:46.917Z,11.83
2022-09-12T04:26:15.300Z,14.60
2022-09-12T04:28:42.517Z,16.70
2022-09-12T04:31:13.423Z,23.80
2022-09-12T04:33:40.293Z,12.27
2022-09-12T04:36:14.688Z,11.63
2022-09-12T04:38:41.556Z,12.43
2022-09-12T04:41:26.069Z,12.70
2022-09-12T04:43:55.458Z,13.47
2022-09-12T04:46:22.401Z,14.90
2022-09-12T04:48:52.305Z,15.00
2022-09-12T04:51:26.033Z,15.83
2022-09-12T04:53:54.906Z,18.07
2022-09-12T04:56:22.769Z,20.57
2022-09-12T04:58:50.291Z,17.90
2022-09-12T05:01:20.217Z,14.47
2022-09-12T05:03:48.458Z,11.53
2022-09-12T05:06:19.032Z,12.27
2022-09-12T05:08:46.942Z,10.20
2022-09-12T05:11:18.116Z,9.40
2022-09-12T05:13:47.929Z,9.93
2022-09-12T05:16:17.033Z,8.80
2022-09-12T05:18:45.565Z,8.13
2022-09-12T05:21:15.159Z,10.27
2022-09-12T05:23:42.478Z,9.03
2022-09-12T05:26:13.366Z,9.77
2022-09-12T05:28:40.408Z,9.60
2022-09-12T05:31:11.415Z,8.60
2022-09-12T05:33:39.375Z,9.93
2022-09-12T05:36:09.752Z,9.20
2022-09-12T05:38:37.623Z,10.17
2022-09-12T05:41:12.340Z,8.57
2022-09-12T05:43:42.966Z,9.60
2022-09-12T05:46:15.707Z,8.67
2022-09-12T05:48:44.724Z,8.83
2022-09-12T05:51:19.277Z,8.27
2022-09-12T05:53:52.770Z,9.20
2022-09-12T05:56:23.320Z,8.57
2022-09-12T05:58:58.949Z,7.90
2022-09-12T06:01:27.421Z,8.05
2022-09-12T06:03:56.843Z,7.85
2022-09-12T06:06:25.231Z,6.88
2022-09-12T06:08:54.730Z,7.38
2022-09-12T06:11:23.987Z,7.10
2022-09-12T06:13:51.223Z,7.22
2022-09-12T06:16:21.193Z,7.47
2022-09-12T06:18:50.129Z,7.28
2022-09-12T06:21:17.377Z,7.45
2022-09-12T06:23:46.183Z,6.88
2022-09-12T06:26:14.077Z,6.65
2022-09-12T06:28:42.867Z,6.50
2022-09-12T06:31:15.965Z,6.93
2022-09-12T06:33:46.698Z,6.30
2022-09-12T06:36:16.250Z,5.88
2022-09-12T06:38:43.921Z,6.45
2022-09-12T06:41:12.590Z,6.55
2022-09-12T06:43:41.196Z,6.47
2022-09-12T06:46:09.530Z,5.65
2022-09-12T06:48:41.528Z,5.40
2022-09-12T06:51:17.548Z,5.57
2022-09-12T06:53:45.952Z,5.53
2022-09-12T06:56:15.714Z,6.00
2022-09-12T06:58:43.905Z,5.60
2022-09-12T07:01:15.221Z,5.13
2022-09-12T07:03:42.982Z,5.57
2022-09-12T07:06:12.372Z,6.07
2022-09-12T07:08:43.804Z,5.13
2022-09-12T07:11:12.547Z,5.82
2022-09-12T07:13:40.602Z,5.32
2022-09-12T07:16:07.897Z,5.50
2022-09-12T07:18:35.412Z,5.32
2022-09-12T07:21:03.163Z,5.35
2022-09-12T07:23:30.925Z,4.97
2022-09-12T07:25:59.946Z,4.63
2022-09-12T07:28:29.657Z,5.53
2022-09-12T07:30:57.115Z,5.47
2022-09-12T07:33:28.507Z,5.63
2022-09-12T07:35:55.683Z,6.15
2022-09-12T07:38:22.792Z,6.03
2022-09-12T07:40:50.340Z,6.07
2022-09-12T07:43:17.259Z,6.13
2022-09-12T07:45:44.210Z,6.38
2022-09-12T07:48:11.160Z,5.82
2022-09-12T07:50:40.934Z,6.55
2022-09-12T07:53:10.335Z,6.22
2022-09-12T07:55:37.220Z,6.35
2022-09-12T07:58:04.378Z,6.60
2022-09-12T08:00:35.909Z,7.32
2022-09-12T08:03:03.877Z,6.57
2022-09-12T08:05:30.959Z,7.30
2022-09-12T08:07:58.107Z,7.20
2022-09-12T08:10:24.991Z,7.65
2022-09-12T08:12:51.896Z,7.68
2022-09-12T08:15:20.041Z,8.15
2022-09-12T08:17:46.988Z,8.77
2022-09-12T08:20:13.935Z,8.07
2022-09-12T08:22:40.760Z,7.53
2022-09-12T08:25:08.709Z,8.45
2022-09-12T08:27:35.731Z,8.18
2022-09-12T08:30:02.779Z,8.00
2022-09-12T08:32:29.777Z,8.40
2022-09-12T08:34:56.594Z,8.25
2022-09-12T08:37:23.495Z,8.85
2022-09-12T08:39:50.924Z,8.30
2022-09-12T08:42:36.688Z,7.88
2022-09-12T08:45:19.634Z,8.57
2022-09-12T08:47:47.523Z,7.38
2022-09-12T08:50:19.126Z,8.35
2022-09-12T08:53:03.478Z,8.73
2022-09-12T08:56:08.422Z,8.88
2022-09-12T08:58:41.009Z,8.38
2022-09-12T09:01:26.723Z,7.97
2022-09-12T09:04:05.872Z,8.68
2022-09-12T09:06:50.650Z,7.72
2022-09-12T09:09:39.596Z,8.13
2022-09-12T09:12:26.719Z,8.57
2022-09-12T09:15:24.880Z,8.35
2022-09-12T09:18:08.785Z,8.07
2022-09-12T09:21:00.223Z,8.63
2022-09-12T09:23:30.882Z,8.52
2022-09-12T09:26:22.440Z,9.57
2022-09-12T09:28:53.751Z,9.05
2022-09-12T09:31:23.204Z,8.20
2022-09-12T09:33:52.941Z,7.18
2022-09-12T09:36:41.281Z,8.20
2022-09-12T09:39:40.886Z,7.95
2022-09-12T09:42:33.749Z,7.20
2022-09-12T09:45:11.269Z,7.82
2022-09-12T09:47:38.109Z,7.70
2022-09-12T09:50:06.546Z,8.50
2022-09-12T09:52:35.918Z,8.93
2022-09-12T09:55:03.011Z,9.43
2022-09-12T09:57:48.198Z,9.40
2022-09-12T10:00:36.078Z,10.20
2022-09-12T10:03:14.851Z,9.98
2022-09-12T10:05:50.490Z,10.25
2022-09-12T10:08:28.810Z,11.10
2022-09-12T10:11:03.680Z,10.07
2022-09-12T10:13:30.469Z,9.70
2022-09-12T10:16:01.240Z,9.95
2022-09-12T10:18:42.564Z,9.38
2022-09-12T10:21:41.672Z,10.25
2022-09-12T10:24:27.000Z,9.10
2022-09-12T10:26:57.093Z,9.98
2022-09-12T10:29:33.438Z,8.40
2022-09-12T10:32:09.021Z,8.70
2022-09-12T10:34:39.439Z,8.50
2022-09-12T10:37:09.435Z,9.63
2022-09-12T10:39:38.553Z,10.23
2022-09-12T10:42:06.030Z,9.27
2022-09-12T10:44:34.845Z,9.30
2022-09-12T10:47:21.572Z,9.43
2022-09-12T10:49:53.142Z,9.70
2022-09-12T10:52:24.892Z,8.60
2022-09-12T10:54:52.419Z,6.35
2022-09-12T10:57:51.886Z,4.72
2022-09-12T11:00:27.429Z,4.90
2022-09-12T11:03:22.270Z,4.85
2022-09-12T11:05:56.469Z,4.38
2022-09-12T11:08:44.777Z,4.53
2022-09-12T11:11:11.709Z,4.63
2022-09-12T11:14:07.846Z,4.60
2022-09-12T11:16:41.061Z,5.20
2022-09-12T11:19:28.764Z,5.32
2022-09-12T11:22:09.157Z,4.75
2022-09-12T11:25:00.330Z,4.30
2022-09-12T11:27:50.753Z,4.43
2022-09-12T11:30:18.292Z,4.53
2022-09-12T11:33:14.864Z,4.28
2022-09-12T11:35:55.217Z,4.32
2022-09-12T11:39:03.748Z,4.70
2022-09-12T11:41:35.124Z,4.72
2022-09-12T11:44:11.654Z,4.20
2022-09-12T11:46:42.235Z,4.15
2022-09-12T11:49:15.556Z,4.10
2022-09-12T11:52:01.693Z,4.32
2022-09-12T11:54:31.334Z,3.60
2022-09-12T11:57:33.642Z,3.72
2022-09-12T12:00:17.814Z,3.60
2022-09-12T12:03:10.147Z,3.80
2022-09-12T12:06:05.840Z,3.20
2022-09-12T12:08:39.608Z,2.78
2022-09-12T12:11:08.092Z,3.33
2022-09-12T12:13:50.258Z,2.97
2022-09-12T12:16:29.287Z,3.20
2022-09-12T12:18:58.736Z,2.95
2022-09-12T12:21:31.881Z,5.25
2022-09-12T12:24:07.572Z,3.58
2022-09-12T12:26:57.417Z,4.22
2022-09-12T12:29:24.235Z,5.35
2022-09-12T12:32:03.523Z,3.78
2022-09-12T12:34:43.791Z,3.80
2022-09-12T12:37:19.940Z,3.80
2022-09-12T12:39:53.883Z,3.50
2022-09-12T12:42:35.820Z,3.22
2022-09-12T12:45:24.603Z,3.15
2022-09-12T12:47:55.258Z,3.15
2022-09-12T12:50:28.257Z,3.13
2022-09-12T12:53:00.204Z,2.65
2022-09-12T12:55:31.837Z,2.95
2022-09-12T12:58:02.130Z,3.20
2022-09-12T13:00:36.066Z,3.30
2022-09-12T13:03:08.419Z,3.10
2022-09-12T13:05:53.812Z,3.00
2022-09-12T13:08:20.997Z,3.50
2022-09-12T13:11:03.089Z,3.72
2022-09-12T13:14:04.638Z,3.13
2022-09-12T13:16:40.282Z,3.42
2022-09-12T13:19:23.055Z,3.20
2022-09-12T13:21:59.734Z,3.65
2022-09-12T13:24:26.655Z,3.35
2022-09-12T13:26:54.009Z,3.20
2022-09-12T13:29:23.376Z,3.25
2022-09-12T13:32:00.723Z,3.70
2022-09-12T13:34:31.827Z,3.35
2022-09-12T13:37:13.773Z,2.92
2022-09-12T13:39:59.327Z,3.05
2022-09-12T13:42:40.148Z,3.85
2022-09-12T13:45:19.412Z,3.50
2022-09-12T13:47:56.617Z,3.40
2022-09-12T13:50:31.874Z,3.50
2022-09-12T13:53:02.608Z,3.17
2022-09-12T13:55:33.053Z,3.00
2022-09-12T13:58:05.374Z,2.88
2022-09-12T14:00:34.943Z,3.03
2022-09-12T14:03:31.420Z,3.13
2022-09-12T14:05:58.399Z,3.28
2022-09-12T14:08:25.308Z,3.10
2022-09-12T14:10:52.252Z,2.90
2022-09-12T14:13:25.211Z,3.13
2022-09-12T14:15:55.917Z,3.05
2022-09-12T14:18:36.266Z,2.90
2022-09-12T14:21:12.799Z,2.90
2022-09-12T14:23:47.801Z,3.42
2022-09-12T14:26:17.751Z,3.08
2022-09-12T14:28:49.307Z,3.28
2022-09-12T14:31:28.664Z,3.22
2022-09-12T14:34:19.313Z,2.92
2022-09-12T14:36:48.005Z,3.20
2022-09-12T14:39:19.813Z,3.10
2022-09-12T14:41:47.185Z,2.85
2022-09-12T14:44:20.798Z,3.05
2022-09-12T14:46:48.817Z,3.30
2022-09-12T14:49:23.441Z,3.30
2022-09-12T14:51:56.952Z,3.60
2022-09-12T14:54:33.827Z,2.75
2022-09-12T14:57:04.145Z,3.15
2022-09-12T14:59:40.769Z,3.00
2022-09-12T15:02:13.750Z,2.88
2022-09-12T15:04:42.666Z,2.97
2022-09-12T15:07:29.584Z,2.90
2022-09-12T15:09:57.574Z,3.28
2022-09-12T15:12:25.090Z,2.83
2022-09-12T15:14:51.941Z,2.95
2022-09-12T15:17:18.785Z,3.45
2022-09-12T15:19:45.696Z,2.95
2022-09-12T15:22:15.953Z,3.10
2022-09-12T15:24:42.715Z,2.78
2022-09-12T15:27:12.074Z,3.25
2022-09-12T15:29:39.290Z,3.10
2022-09-12T15:32:06.827Z,3.33
2022-09-12T15:34:33.876Z,2.88
2022-09-12T15:37:01.022Z,3.30
2022-09-12T15:39:28.021Z,3.22
2022-09-12T15:41:54.819Z,3.40
2022-09-12T15:44:23.569Z,2.92
2022-09-12T15:46:50.535Z,3.17
2022-09-12T15:49:17.428Z,3.50
2022-09-12T15:51:44.428Z,3.13
2022-09-12T15:54:14.539Z,3.17
2022-09-12T15:56:44.134Z,3.22
2022-09-12T15:59:10.992Z,3.30
2022-09-12T16:01:37.958Z,3.20
2022-09-12T16:04:24.441Z,3.83
2022-09-12T16:06:52.805Z,3.80
2022-09-12T16:09:23.830Z,3.17
2022-09-12T16:11:53.901Z,2.95
2022-09-12T16:14:23.158Z,3.67
2022-09-12T16:16:54.709Z,3.35
2022-09-12T16:19:23.934Z,3.42
2022-09-12T16:21:50.861Z,3.08
2022-09-12T16:24:22.931Z,3.00
2022-09-12T16:26:49.994Z,3.60
2022-09-12T16:29:16.880Z,3.28
2022-09-12T16:31:43.755Z,3.00
2022-09-12T16:34:11.362Z,3.17
2022-09-12T16:36:38.327Z,3.38
2022-09-12T16:39:05.441Z,3.42
2022-09-12T16:41:32.436Z,3.80
2022-09-12T16:43:59.403Z,3.50
2022-09-12T16:46:28.809Z,3.60
2022-09-12T16:48:57.995Z,4.20
2022-09-12T16:51:35.887Z,3.88
2022-09-12T16:54:03.154Z,3.65
2022-09-12T16:56:30.104Z,4.15
2022-09-12T16:58:57.038Z,3.92
2022-09-12T17:01:29.829Z,4.10
2022-09-12T17:03:59.977Z,4.80
2022-09-12T17:06:28.333Z,4.30
2022-09-12T17:09:06.399Z,9.85
2022-09-12T17:11:37.070Z,13.73
2022-09-12T17:14:08.652Z,16.58
2022-09-12T17:16:39.111Z,4.60
2022-09-12T17:19:13.310Z,4.93
2022-09-12T17:21:40.293Z,11.27
2022-09-12T17:24:10.449Z,5.10
2022-09-12T17:26:37.369Z,3.90
2022-09-12T17:29:04.846Z,4.25
2022-09-12T17:31:32.581Z,13.40
2022-09-12T17:34:05.770Z,3.60
2022-09-12T17:36:35.275Z,12.07
2022-09-12T17:39:04.013Z,6.15
2022-09-12T17:41:32.010Z,5.00
2022-09-12T17:44:00.684Z,5.25
2022-09-12T17:46:37.639Z,5.68
2022-09-12T17:49:09.133Z,5.18
2022-09-12T17:51:36.536Z,5.05
2022-09-12T17:54:15.863Z,4.60
2022-09-12T17:56:44.326Z,5.65
2022-09-12T17:59:15.565Z,5.63
2022-09-12T18:02:00.960Z,5.15
2022-09-12T18:04:31.730Z,4.88
2022-09-12T18:07:01.763Z,4.80
2022-09-12T18:09:32.678Z,4.35
2022-09-12T18:11:59.549Z,5.07
2022-09-12T18:14:27.911Z,4.40
2022-09-12T18:16:57.094Z,5.32
2022-09-12T18:19:24.582Z,5.97
2022-09-12T18:21:51.514Z,5.03
2022-09-12T18:24:18.563Z,4.80
2022-09-12T18:26:45.686Z,4.38
2022-09-12T18:29:16.647Z,6.93
2022-09-12T18:31:44.594Z,6.88
2022-09-12T18:34:13.782Z,6.22
2022-09-12T18:36:46.712Z,6.70
2022-09-12T18:39:14.248Z,7.50
2022-09-12T18:41:41.276Z,8.60
2022-09-12T18:44:15.515Z,6.05
2022-09-12T18:46:42.648Z,11.30
2022-09-12T18:49:09.920Z,6.38
2022-09-12T18:51:37.481Z,5.90
2022-09-12T18:54:08.767Z,5.63
2022-09-12T18:56:38.314Z,5.95
2022-09-12T18:59:08.154Z,6.35
2022-09-12T19:01:38.986Z,5.63
2022-09-12T19:04:12.548Z,9.23
2022-09-12T19:06:42.623Z,6.18
2022-09-12T19:09:11.258Z,5.97
2022-09-12T19:11:50.371Z,5.55
2022-09-12T19:14:26.234Z,5.88
2022-09-12T19:16:56.233Z,7.18
2022-09-12T19:19:26.679Z,5.43
2022-09-12T19:21:54.417Z,5.95
2022-09-12T19:24:21.826Z,6.75
2022-09-12T19:26:49.783Z,5.85
2022-09-12T19:29:17.124Z,5.90
2022-09-12T19:31:44.665Z,5.40
2022-09-12T19:34:13.513Z,5.40
2022-09-12T19:36:45.272Z,5.68
2022-09-12T19:39:13.315Z,5.20
2022-09-12T19:41:40.193Z,4.97
2022-09-12T19:44:07.255Z,5.38
2022-09-12T19:46:34.165Z,5.97
2022-09-12T19:49:01.382Z,6.03
2022-09-12T19:51:29.171Z,5.30
2022-09-12T19:53:56.510Z,5.13
2022-09-12T19:56:23.733Z,5.05
2022-09-12T19:58:55.749Z,5.75
2022-09-12T20:01:28.477Z,5.32
2022-09-12T20:03:57.187Z,4.88
2022-09-12T20:06:24.626Z,5.38
2022-09-12T20:08:51.573Z,5.13
2022-09-12T20:11:20.853Z,5.90
2022-09-12T20:13:48.107Z,5.88
2022-09-12T20:16:22.798Z,5.90
2022-09-12T20:18:55.276Z,5.90
2022-09-12T20:21:25.466Z,6.57
2022-09-12T20:23:52.619Z,6.47
2022-09-12T20:26:20.480Z,6.03
2022-09-12T20:28:48.066Z,5.90
2022-09-12T20:31:16.063Z,5.80
2022-09-12T20:33:43.744Z,6.15
2022-09-12T20:36:16.794Z,5.82
2022-09-12T20:38:51.992Z,5.53
2022-09-12T20:41:20.643Z,5.65
2022-09-12T20:43:53.332Z,6.32
2022-09-12T20:46:22.505Z,7.00
2022-09-12T20:48:50.809Z,6.10
2022-09-12T20:51:18.930Z,5.70
2022-09-12T20:53:46.033Z,5.65
2022-09-12T20:56:14.537Z,6.07
2022-09-12T20:58:44.108Z,5.72
2022-09-12T21:01:13.918Z,5.30
2022-09-12T21:03:42.145Z,5.32
2022-09-12T21:06:10.244Z,5.35
2022-09-12T21:08:37.544Z,5.10
2022-09-12T21:11:05.245Z,5.18
2022-09-12T21:13:32.514Z,5.13
2022-09-12T21:16:15.024Z,5.07
2022-09-12T21:18:42.362Z,5.22
2022-09-12T21:21:14.077Z,5.40
2022-09-12T21:23:43.674Z,5.40
2022-09-12T21:26:10.887Z,5.00
2022-09-12T21:28:37.888Z,5.05
2022-09-12T21:31:05.533Z,5.45
2022-09-12T21:33:32.532Z,5.30
2022-09-12T21:36:04.280Z,6.10
2022-09-12T21:38:31.872Z,5.57
2022-09-12T21:41:10.130Z,5.18
2022-09-12T21:43:37.837Z,5.40
2022-09-12T21:46:05.980Z,5.03
2022-09-12T21:48:34.119Z,4.85
2022-09-12T21:51:01.512Z,5.03
2022-09-12T21:53:28.590Z,5.00
2022-09-12T21:56:00.134Z,4.95
2022-09-12T21:58:27.050Z,5.80
2022-09-12T22:00:53.977Z,5.38
2022-09-12T22:03:20.940Z,5.60
2022-09-12T22:05:51.807Z,5.60
2022-09-12T22:08:18.789Z,5.28
2022-09-12T22:10:45.695Z,5.47
2022-09-12T22:13:12.611Z,5.20
2022-09-12T22:15:44.574Z,5.78
2022-09-12T22:18:11.851Z,5.40
2022-09-12T22:20:38.787Z,5.80
2022-09-12T22:23:25.167Z,6.15
2022-09-12T22:25:54.942Z,5.88
2022-09-12T22:28:22.627Z,5.75
2022-09-12T22:30:49.994Z,5.72
2022-09-12T22:33:16.987Z,5.75
2022-09-12T22:35:44.314Z,6.47
2022-09-12T22:38:11.162Z,6.53
2022-09-12T22:40:38.366Z,5.82
2022-09-12T22:43:05.676Z,6.00
2022-09-12T22:45:32.623Z,7.55
2022-09-12T22:48:01.041Z,6.35
2022-09-12T22:50:28.606Z,6.17
2022-09-12T22:52:55.898Z,5.95
2022-09-12T22:55:22.761Z,6.03
2022-09-12T22:57:49.928Z,5.97
2022-09-12T23:00:18.092Z,6.10
2022-09-12T23:02:44.998Z,6.40
2022-09-12T23:05:12.332Z,6.15
2022-09-12T23:07:39.247Z,6.63
2022-09-12T23:10:06.999Z,6.00
2022-09-12T23:12:34.021Z,5.97
2022-09-12T23:15:00.877Z,5.53
2022-09-12T23:17:27.995Z,6.37
2022-09-12T23:19:54.971Z,6.60
2022-09-12T23:22:21.911Z,6.00
2022-09-12T23:24:48.777Z,5.57
2022-09-12T23:27:15.794Z,5.80
2022-09-12T23:29:42.674Z,6.10
2022-09-12T23:32:09.576Z,6.17
2022-09-12T23:34:36.612Z,5.93
2022-09-12T23:37:03.528Z,6.35
2022-09-12T23:39:31.784Z,6.30
2022-09-12T23:41:58.731Z,6.20
2022-09-12T23:44:28.137Z,6.07
2022-09-12T23:46:55.088Z,6.13
2022-09-12T23:49:21.949Z,5.67
2022-09-12T23:51:48.844Z,7.10
2022-09-12T23:54:15.802Z,6.47
2022-09-12T23:56:42.777Z,6.10
2022-09-12T23:59:09.789Z,6.27
